GCHI

Details ICAO GCHI (VDE)
Name Hierro
Region Canary Islands
Timezone Atlantic/Canary (UTC+0.0)
Plans Departing 40
Arriving 62
Stats Elevation 337 ft / 103 m (AMSL)
Location 27.814848° -17.887052°
Runways 1
Magnetic Variation 5.628° W
Sunrise 2017-12-17 07:57:33 UTC / 2017-12-17 07:57:33 Local
Sunset 2017-12-17 18:20:34 UTC / 2017-12-17 18:20:34 Local
Advertisement - Login to hide

Runways

ID Width Length Bearing (true) Bearing (mag) Surface Threshold Offset Overrun Length
16 98 ft / 30 m 4,110 ft / 1,253 m 152.71° 158.34° Asphalt 0 ft / 0 m 112 ft / 34 m
34 98 ft / 30 m 4,110 ft / 1,253 m 332.71° 338.34° Asphalt 0 ft / 0 m 105 ft / 32 m

Map

Weather


0- 5 10 15 20 25 30 35+ Temperature / ° C

Clouds and Precipitation
Forecast for 2017-12-17 06:00 UTC. Updated an hour ago

Ground ~20,000 ft ~40,000 ft Winds

METAR

GCHI 170430Z AUTO 02014KT 340V050 9999 SCT012/// BKN027/// 20/18 Q1022

TAF

TAF GCHI 170200Z 1703/1803 02015KT 9999 SCT025 TX21/1714Z TN18/1706Z

Frequencies

Tower 118.10 MHz GCHI TWR
Approach 126.10 MHz GCHI APP
Warning: Do not use this data for real-world aviation or navigation. No guarantee of current accuracy is given.